sensor_id;sensor_type;location;lat;lon;timestamp;temperature;humidity
37560;DHT22;23398;50.928;7.084;2022-07-05T00:00:14;16.60;63.60
37560;DHT22;23398;50.928;7.084;2022-07-05T00:02:39;16.50;63.50
37560;DHT22;23398;50.928;7.084;2022-07-05T00:05:05;16.40;63.50
37560;DHT22;23398;50.928;7.084;2022-07-05T00:07:31;16.40;63.30
37560;DHT22;23398;50.928;7.084;2022-07-05T00:09:57;16.30;63.20
37560;DHT22;23398;50.928;7.084;2022-07-05T00:12:26;16.30;63.20
37560;DHT22;23398;50.928;7.084;2022-07-05T00:14:53;16.30;63.50
37560;DHT22;23398;50.928;7.084;2022-07-05T00:17:19;16.20;63.50
37560;DHT22;23398;50.928;7.084;2022-07-05T00:19:44;16.10;63.70
37560;DHT22;23398;50.928;7.084;2022-07-05T00:22:10;16.10;64.00
37560;DHT22;23398;50.928;7.084;2022-07-05T00:24:36;16.00;64.30
37560;DHT22;23398;50.928;7.084;2022-07-05T00:27:02;16.10;64.70
37560;DHT22;23398;50.928;7.084;2022-07-05T00:29:28;16.00;65.10
37560;DHT22;23398;50.928;7.084;2022-07-05T00:31:53;15.90;65.40
37560;DHT22;23398;50.928;7.084;2022-07-05T00:34:19;16.00;65.80
37560;DHT22;23398;50.928;7.084;2022-07-05T00:36:45;15.90;65.70
37560;DHT22;23398;50.928;7.084;2022-07-05T00:39:10;15.90;66.10
37560;DHT22;23398;50.928;7.084;2022-07-05T00:41:36;15.80;66.40
37560;DHT22;23398;50.928;7.084;2022-07-05T00:44:04;16.00;66.90
37560;DHT22;23398;50.928;7.084;2022-07-05T00:46:30;15.90;67.00
37560;DHT22;23398;50.928;7.084;2022-07-05T00:48:57;15.80;66.90
37560;DHT22;23398;50.928;7.084;2022-07-05T00:51:24;15.80;67.20
37560;DHT22;23398;50.928;7.084;2022-07-05T00:53:50;15.70;67.40
37560;DHT22;23398;50.928;7.084;2022-07-05T00:56:17;15.70;67.30
37560;DHT22;23398;50.928;7.084;2022-07-05T00:58:43;15.70;67.20
37560;DHT22;23398;50.928;7.084;2022-07-05T01:01:09;15.70;66.90
37560;DHT22;23398;50.928;7.084;2022-07-05T01:03:36;15.70;66.70
37560;DHT22;23398;50.928;7.084;2022-07-05T01:06:05;15.80;66.80
37560;DHT22;23398;50.928;7.084;2022-07-05T01:08:32;15.60;66.40
37560;DHT22;23398;50.928;7.084;2022-07-05T01:10:58;15.60;66.10
37560;DHT22;23398;50.928;7.084;2022-07-05T01:13:25;15.50;65.90
37560;DHT22;23398;50.928;7.084;2022-07-05T01:15:51;15.50;66.00
37560;DHT22;23398;50.928;7.084;2022-07-05T01:18:19;15.40;66.00
37560;DHT22;23398;50.928;7.084;2022-07-05T01:20:48;15.40;66.30
37560;DHT22;23398;50.928;7.084;2022-07-05T01:23:13;15.40;66.50
37560;DHT22;23398;50.928;7.084;2022-07-05T01:25:39;15.30;66.90
37560;DHT22;23398;50.928;7.084;2022-07-05T01:28:05;15.30;67.40
37560;DHT22;23398;50.928;7.084;2022-07-05T01:30:34;15.20;67.50
37560;DHT22;23398;50.928;7.084;2022-07-05T01:33:00;15.20;67.90
37560;DHT22;23398;50.928;7.084;2022-07-05T01:35:26;15.20;68.00
37560;DHT22;23398;50.928;7.084;2022-07-05T01:37:52;15.10;68.60
37560;DHT22;23398;50.928;7.084;2022-07-05T01:40:19;15.40;67.70
37560;DHT22;23398;50.928;7.084;2022-07-05T01:42:45;15.10;67.20
37560;DHT22;23398;50.928;7.084;2022-07-05T01:45:12;15.10;67.70
37560;DHT22;23398;50.928;7.084;2022-07-05T01:47:44;15.10;68.10
37560;DHT22;23398;50.928;7.084;2022-07-05T01:50:13;15.00;68.20
37560;DHT22;23398;50.928;7.084;2022-07-05T01:52:42;15.00;67.90
37560;DHT22;23398;50.928;7.084;2022-07-05T01:55:09;15.00;67.90
37560;DHT22;23398;50.928;7.084;2022-07-05T01:57:34;15.00;68.20
37560;DHT22;23398;50.928;7.084;2022-07-05T02:00:00;15.00;68.60
37560;DHT22;23398;50.928;7.084;2022-07-05T02:02:26;15.20;68.90
37560;DHT22;23398;50.928;7.084;2022-07-05T02:04:51;14.90;68.70
37560;DHT22;23398;50.928;7.084;2022-07-05T02:07:17;14.90;68.90
37560;DHT22;23398;50.928;7.084;2022-07-05T02:09:42;14.80;69.00
37560;DHT22;23398;50.928;7.084;2022-07-05T02:12:08;15.20;69.70
37560;DHT22;23398;50.928;7.084;2022-07-05T02:14:34;14.80;69.80
37560;DHT22;23398;50.928;7.084;2022-07-05T02:17:00;14.80;70.40
37560;DHT22;23398;50.928;7.084;2022-07-05T02:19:26;14.70;70.50
37560;DHT22;23398;50.928;7.084;2022-07-05T02:21:51;14.80;70.80
37560;DHT22;23398;50.928;7.084;2022-07-05T02:24:17;14.70;70.90
37560;DHT22;23398;50.928;7.084;2022-07-05T02:26:43;14.70;71.20
37560;DHT22;23398;50.928;7.084;2022-07-05T02:29:08;14.70;71.40
37560;DHT22;23398;50.928;7.084;2022-07-05T02:31:34;14.70;71.20
37560;DHT22;23398;50.928;7.084;2022-07-05T02:34:00;14.70;70.70
37560;DHT22;23398;50.928;7.084;2022-07-05T02:36:25;14.70;70.50
37560;DHT22;23398;50.928;7.084;2022-07-05T02:38:51;14.60;70.40
37560;DHT22;23398;50.928;7.084;2022-07-05T02:41:16;14.60;70.40
37560;DHT22;23398;50.928;7.084;2022-07-05T02:43:42;14.60;70.50
37560;DHT22;23398;50.928;7.084;2022-07-05T02:46:08;14.50;70.60
37560;DHT22;23398;50.928;7.084;2022-07-05T02:48:35;14.50;70.80
37560;DHT22;23398;50.928;7.084;2022-07-05T02:51:02;14.90;72.00
37560;DHT22;23398;50.928;7.084;2022-07-05T02:53:28;14.50;71.70
37560;DHT22;23398;50.928;7.084;2022-07-05T02:55:54;14.40;71.00
37560;DHT22;23398;50.928;7.084;2022-07-05T02:58:20;14.40;71.20
37560;DHT22;23398;50.928;7.084;2022-07-05T03:00:48;14.40;71.60
37560;DHT22;23398;50.928;7.084;2022-07-05T03:03:14;14.40;72.10
37560;DHT22;23398;50.928;7.084;2022-07-05T03:05:40;14.40;72.30
37560;DHT22;23398;50.928;7.084;2022-07-05T03:08:06;14.70;72.90
37560;DHT22;23398;50.928;7.084;2022-07-05T03:10:33;14.50;73.10
37560;DHT22;23398;50.928;7.084;2022-07-05T03:12:59;14.80;73.70
37560;DHT22;23398;50.928;7.084;2022-07-05T03:15:25;14.50;73.50
37560;DHT22;23398;50.928;7.084;2022-07-05T03:17:51;14.60;73.60
37560;DHT22;23398;50.928;7.084;2022-07-05T03:20:16;14.60;73.60
37560;DHT22;23398;50.928;7.084;2022-07-05T03:22:42;14.60;72.60
37560;DHT22;23398;50.928;7.084;2022-07-05T03:25:08;14.60;72.30
37560;DHT22;23398;50.928;7.084;2022-07-05T03:27:34;14.70;72.40
37560;DHT22;23398;50.928;7.084;2022-07-05T03:30:00;15.00;73.00
37560;DHT22;23398;50.928;7.084;2022-07-05T03:32:26;14.70;72.90
37560;DHT22;23398;50.928;7.084;2022-07-05T03:34:52;14.70;73.00
37560;DHT22;23398;50.928;7.084;2022-07-05T03:37:17;14.60;72.50
37560;DHT22;23398;50.928;7.084;2022-07-05T03:39:43;14.60;72.10
37560;DHT22;23398;50.928;7.084;2022-07-05T03:42:08;14.60;71.80
37560;DHT22;23398;50.928;7.084;2022-07-05T03:44:34;14.60;72.00
37560;DHT22;23398;50.928;7.084;2022-07-05T03:47:00;14.60;72.40
37560;DHT22;23398;50.928;7.084;2022-07-05T03:49:26;15.00;73.80
37560;DHT22;23398;50.928;7.084;2022-07-05T03:51:52;14.70;73.70
37560;DHT22;23398;50.928;7.084;2022-07-05T03:54:18;14.70;73.50
37560;DHT22;23398;50.928;7.084;2022-07-05T03:56:43;14.70;73.30
37560;DHT22;23398;50.928;7.084;2022-07-05T03:59:09;14.80;73.40
37560;DHT22;23398;50.928;7.084;2022-07-05T04:01:35;14.80;73.50
37560;DHT22;23398;50.928;7.084;2022-07-05T04:04:01;15.10;73.90
37560;DHT22;23398;50.928;7.084;2022-07-05T04:06:27;14.90;74.90
37560;DHT22;23398;50.928;7.084;2022-07-05T04:08:53;15.00;74.50
37560;DHT22;23398;50.928;7.084;2022-07-05T04:11:18;15.10;74.90
37560;DHT22;23398;50.928;7.084;2022-07-05T04:13:44;15.20;75.50
37560;DHT22;23398;50.928;7.084;2022-07-05T04:16:10;15.20;75.70
37560;DHT22;23398;50.928;7.084;2022-07-05T04:18:35;15.30;76.00
37560;DHT22;23398;50.928;7.084;2022-07-05T04:21:02;15.40;76.20
37560;DHT22;23398;50.928;7.084;2022-07-05T04:23:28;15.50;76.50
37560;DHT22;23398;50.928;7.084;2022-07-05T04:25:54;15.60;76.60
37560;DHT22;23398;50.928;7.084;2022-07-05T04:28:20;15.70;76.90
37560;DHT22;23398;50.928;7.084;2022-07-05T04:30:46;15.90;76.80
37560;DHT22;23398;50.928;7.084;2022-07-05T04:33:11;16.00;76.50
37560;DHT22;23398;50.928;7.084;2022-07-05T04:35:37;16.20;76.20
37560;DHT22;23398;50.928;7.084;2022-07-05T04:38:03;16.40;76.10
37560;DHT22;23398;50.928;7.084;2022-07-05T04:40:28;16.50;75.60
37560;DHT22;23398;50.928;7.084;2022-07-05T04:42:54;16.60;75.60
37560;DHT22;23398;50.928;7.084;2022-07-05T04:45:20;16.80;75.10
37560;DHT22;23398;50.928;7.084;2022-07-05T04:47:45;16.90;74.60
37560;DHT22;23398;50.928;7.084;2022-07-05T04:50:11;17.00;74.10
37560;DHT22;23398;50.928;7.084;2022-07-05T04:52:36;17.10;73.60
37560;DHT22;23398;50.928;7.084;2022-07-05T04:55:02;17.10;73.20
37560;DHT22;23398;50.928;7.084;2022-07-05T04:57:39;17.20;73.10
37560;DHT22;23398;50.928;7.084;2022-07-05T05:00:05;17.30;73.40
37560;DHT22;23398;50.928;7.084;2022-07-05T05:02:31;17.30;72.80
37560;DHT22;23398;50.928;7.084;2022-07-05T05:04:57;17.40;72.90
37560;DHT22;23398;50.928;7.084;2022-07-05T05:07:22;17.40;73.60
37560;DHT22;23398;50.928;7.084;2022-07-05T05:09:48;17.50;73.80
37560;DHT22;23398;50.928;7.084;2022-07-05T05:12:14;17.60;73.50
37560;DHT22;23398;50.928;7.084;2022-07-05T05:14:39;17.80;73.30
37560;DHT22;23398;50.928;7.084;2022-07-05T05:17:05;17.90;72.60
37560;DHT22;23398;50.928;7.084;2022-07-05T05:19:31;18.00;72.10
37560;DHT22;23398;50.928;7.084;2022-07-05T05:21:56;18.10;71.80
37560;DHT22;23398;50.928;7.084;2022-07-05T05:24:22;18.30;71.80
37560;DHT22;23398;50.928;7.084;2022-07-05T05:26:47;18.50;72.00
37560;DHT22;23398;50.928;7.084;2022-07-05T05:29:14;18.80;71.90
37560;DHT22;23398;50.928;7.084;2022-07-05T05:31:40;19.10;71.90
37560;DHT22;23398;50.928;7.084;2022-07-05T05:34:05;18.90;71.10
37560;DHT22;23398;50.928;7.084;2022-07-05T05:36:31;19.10;70.80
37560;DHT22;23398;50.928;7.084;2022-07-05T05:38:56;19.20;69.80
37560;DHT22;23398;50.928;7.084;2022-07-05T05:41:22;19.50;69.50
37560;DHT22;23398;50.928;7.084;2022-07-05T05:43:48;19.60;68.90
37560;DHT22;23398;50.928;7.084;2022-07-05T05:46:13;19.70;68.40
37560;DHT22;23398;50.928;7.084;2022-07-05T05:48:39;19.90;68.30
37560;DHT22;23398;50.928;7.084;2022-07-05T05:51:04;20.30;68.20
37560;DHT22;23398;50.928;7.084;2022-07-05T05:53:30;20.20;67.70
37560;DHT22;23398;50.928;7.084;2022-07-05T05:55:56;20.30;66.90
37560;DHT22;23398;50.928;7.084;2022-07-05T05:58:22;20.40;66.50
37560;DHT22;23398;50.928;7.084;2022-07-05T06:00:51;20.70;66.50
37560;DHT22;23398;50.928;7.084;2022-07-05T06:03:27;20.70;65.80
37560;DHT22;23398;50.928;7.084;2022-07-05T06:05:53;20.90;65.80
37560;DHT22;23398;50.928;7.084;2022-07-05T06:08:19;21.00;64.80
37560;DHT22;23398;50.928;7.084;2022-07-05T06:10:45;21.10;63.90
37560;DHT22;23398;50.928;7.084;2022-07-05T06:13:13;21.30;63.40
37560;DHT22;23398;50.928;7.084;2022-07-05T06:15:40;21.50;63.30
37560;DHT22;23398;50.928;7.084;2022-07-05T06:18:10;21.70;63.00
37560;DHT22;23398;50.928;7.084;2022-07-05T06:20:37;21.90;62.30
37560;DHT22;23398;50.928;7.084;2022-07-05T06:23:04;22.10;61.60
37560;DHT22;23398;50.928;7.084;2022-07-05T06:25:31;22.30;61.00
37560;DHT22;23398;50.928;7.084;2022-07-05T06:28:00;22.50;60.40
37560;DHT22;23398;50.928;7.084;2022-07-05T06:30:27;22.70;60.00
37560;DHT22;23398;50.928;7.084;2022-07-05T06:32:54;22.80;59.60
37560;DHT22;23398;50.928;7.084;2022-07-05T06:35:20;23.00;60.00
37560;DHT22;23398;50.928;7.084;2022-07-05T06:37:53;23.10;59.10
37560;DHT22;23398;50.928;7.084;2022-07-05T06:42:53;23.30;58.30
37560;DHT22;23398;50.928;7.084;2022-07-05T06:45:19;23.50;58.30
37560;DHT22;23398;50.928;7.084;2022-07-05T06:47:45;23.80;59.20
37560;DHT22;23398;50.928;7.084;2022-07-05T06:50:11;24.20;60.10
37560;DHT22;23398;50.928;7.084;2022-07-05T06:52:37;24.90;59.70
37560;DHT22;23398;50.928;7.084;2022-07-05T06:55:05;25.60;58.80
37560;DHT22;23398;50.928;7.084;2022-07-05T06:57:30;26.50;57.80
37560;DHT22;23398;50.928;7.084;2022-07-05T06:59:56;27.40;56.50
37560;DHT22;23398;50.928;7.084;2022-07-05T07:02:22;28.40;55.20
37560;DHT22;23398;50.928;7.084;2022-07-05T07:04:48;29.50;54.10
37560;DHT22;23398;50.928;7.084;2022-07-05T07:07:14;30.50;53.00
37560;DHT22;23398;50.928;7.084;2022-07-05T07:09:59;31.70;51.00
37560;DHT22;23398;50.928;7.084;2022-07-05T07:12:25;33.00;48.20
37560;DHT22;23398;50.928;7.084;2022-07-05T07:14:51;33.90;45.40
37560;DHT22;23398;50.928;7.084;2022-07-05T07:17:16;34.60;43.20
37560;DHT22;23398;50.928;7.084;2022-07-05T07:19:42;35.10;42.30
37560;DHT22;23398;50.928;7.084;2022-07-05T07:22:07;35.60;41.50
37560;DHT22;23398;50.928;7.084;2022-07-05T07:24:33;36.20;41.30
37560;DHT22;23398;50.928;7.084;2022-07-05T07:26:59;36.80;40.40
37560;DHT22;23398;50.928;7.084;2022-07-05T07:29:32;37.50;40.00
37560;DHT22;23398;50.928;7.084;2022-07-05T07:31:58;38.40;38.70
37560;DHT22;23398;50.928;7.084;2022-07-05T07:34:26;39.40;37.10
37560;DHT22;23398;50.928;7.084;2022-07-05T07:36:52;40.30;36.00
37560;DHT22;23398;50.928;7.084;2022-07-05T07:39:18;41.20;35.10
37560;DHT22;23398;50.928;7.084;2022-07-05T07:41:43;42.10;33.10
37560;DHT22;23398;50.928;7.084;2022-07-05T07:44:09;43.00;32.40
37560;DHT22;23398;50.928;7.084;2022-07-05T07:46:35;43.90;31.10
37560;DHT22;23398;50.928;7.084;2022-07-05T07:49:01;44.80;30.10
37560;DHT22;23398;50.928;7.084;2022-07-05T07:51:27;45.60;29.00
37560;DHT22;23398;50.928;7.084;2022-07-05T07:53:52;46.50;28.20
37560;DHT22;23398;50.928;7.084;2022-07-05T07:56:18;47.20;27.10
37560;DHT22;23398;50.928;7.084;2022-07-05T07:58:44;47.90;26.20
37560;DHT22;23398;50.928;7.084;2022-07-05T08:01:09;48.50;25.40
37560;DHT22;23398;50.928;7.084;2022-07-05T08:03:40;48.90;24.70
37560;DHT22;23398;50.928;7.084;2022-07-05T08:06:07;49.20;24.20
37560;DHT22;23398;50.928;7.084;2022-07-05T08:08:34;49.40;23.60
37560;DHT22;23398;50.928;7.084;2022-07-05T08:11:00;49.60;23.50
37560;DHT22;23398;50.928;7.084;2022-07-05T08:13:26;49.80;23.30
37560;DHT22;23398;50.928;7.084;2022-07-05T08:15:52;50.00;22.90
37560;DHT22;23398;50.928;7.084;2022-07-05T08:18:17;50.10;22.60
37560;DHT22;23398;50.928;7.084;2022-07-05T08:21:01;50.20;22.30
37560;DHT22;23398;50.928;7.084;2022-07-05T08:23:45;50.30;22.20
37560;DHT22;23398;50.928;7.084;2022-07-05T08:26:11;50.60;22.10
37560;DHT22;23398;50.928;7.084;2022-07-05T08:28:36;50.70;21.90
37560;DHT22;23398;50.928;7.084;2022-07-05T08:31:02;50.80;21.90
37560;DHT22;23398;50.928;7.084;2022-07-05T08:33:27;51.00;21.50
37560;DHT22;23398;50.928;7.084;2022-07-05T08:35:53;50.80;20.80
37560;DHT22;23398;50.928;7.084;2022-07-05T08:38:19;50.60;20.70
37560;DHT22;23398;50.928;7.084;2022-07-05T08:40:49;50.20;20.60
37560;DHT22;23398;50.928;7.084;2022-07-05T08:43:15;49.70;20.40
37560;DHT22;23398;50.928;7.084;2022-07-05T08:45:43;48.90;20.80
37560;DHT22;23398;50.928;7.084;2022-07-05T08:48:10;48.20;21.20
37560;DHT22;23398;50.928;7.084;2022-07-05T08:50:38;47.60;22.10
37560;DHT22;23398;50.928;7.084;2022-07-05T08:53:05;47.30;22.10
37560;DHT22;23398;50.928;7.084;2022-07-05T08:55:32;47.30;22.40
37560;DHT22;23398;50.928;7.084;2022-07-05T08:57:58;47.50;22.60
37560;DHT22;23398;50.928;7.084;2022-07-05T09:00:24;47.70;22.30
37560;DHT22;23398;50.928;7.084;2022-07-05T09:02:53;48.00;22.00
37560;DHT22;23398;50.928;7.084;2022-07-05T09:05:19;48.40;22.40
37560;DHT22;23398;50.928;7.084;2022-07-05T09:07:55;48.90;22.10
37560;DHT22;23398;50.928;7.084;2022-07-05T09:10:26;49.40;22.00
37560;DHT22;23398;50.928;7.084;2022-07-05T09:12:52;50.10;21.70
37560;DHT22;23398;50.928;7.084;2022-07-05T09:15:18;50.70;21.30
37560;DHT22;23398;50.928;7.084;2022-07-05T09:17:44;51.20;20.90
37560;DHT22;23398;50.928;7.084;2022-07-05T09:20:14;51.70;20.40
37560;DHT22;23398;50.928;7.084;2022-07-05T09:22:56;52.00;19.70
37560;DHT22;23398;50.928;7.084;2022-07-05T09:25:30;52.20;19.40
37560;DHT22;23398;50.928;7.084;2022-07-05T09:27:58;52.20;19.50
37560;DHT22;23398;50.928;7.084;2022-07-05T09:35:30;52.30;20.00
37560;DHT22;23398;50.928;7.084;2022-07-05T09:37:55;52.50;19.60
37560;DHT22;23398;50.928;7.084;2022-07-05T09:40:21;52.80;19.20
37560;DHT22;23398;50.928;7.084;2022-07-05T09:42:47;53.00;19.20
37560;DHT22;23398;50.928;7.084;2022-07-05T09:45:21;53.00;18.90
37560;DHT22;23398;50.928;7.084;2022-07-05T09:47:48;53.00;18.60
37560;DHT22;23398;50.928;7.084;2022-07-05T09:50:13;53.10;19.00
37560;DHT22;23398;50.928;7.084;2022-07-05T09:52:40;53.20;18.80
37560;DHT22;23398;50.928;7.084;2022-07-05T09:57:38;53.50;18.20
37560;DHT22;23398;50.928;7.084;2022-07-05T10:00:20;53.60;18.00
37560;DHT22;23398;50.928;7.084;2022-07-05T10:05:20;53.60;17.70
37560;DHT22;23398;50.928;7.084;2022-07-05T10:07:54;53.20;17.40
37560;DHT22;23398;50.928;7.084;2022-07-05T10:10:22;52.40;17.60
37560;DHT22;23398;50.928;7.084;2022-07-05T10:12:53;51.50;18.00
37560;DHT22;23398;50.928;7.084;2022-07-05T10:15:26;50.50;18.30
37560;DHT22;23398;50.928;7.084;2022-07-05T10:18:04;49.90;19.60
37560;DHT22;23398;50.928;7.084;2022-07-05T10:20:43;49.50;19.50
37560;DHT22;23398;50.928;7.084;2022-07-05T10:23:11;49.40;19.90
37560;DHT22;23398;50.928;7.084;2022-07-05T10:25:42;49.40;19.60
37560;DHT22;23398;50.928;7.084;2022-07-05T10:28:09;49.20;19.30
37560;DHT22;23398;50.928;7.084;2022-07-05T10:30:35;48.80;19.20
37560;DHT22;23398;50.928;7.084;2022-07-05T10:33:06;48.10;19.50
37560;DHT22;23398;50.928;7.084;2022-07-05T10:35:32;47.10;19.70
37560;DHT22;23398;50.928;7.084;2022-07-05T10:37:59;46.00;20.70
37560;DHT22;23398;50.928;7.084;2022-07-05T10:40:26;45.00;20.40
37560;DHT22;23398;50.928;7.084;2022-07-05T10:42:55;44.10;21.20
37560;DHT22;23398;50.928;7.084;2022-07-05T10:45:35;43.40;22.20
37560;DHT22;23398;50.928;7.084;2022-07-05T10:53:27;42.60;22.60
37560;DHT22;23398;50.928;7.084;2022-07-05T10:58:29;41.90;22.80
37560;DHT22;23398;50.928;7.084;2022-07-05T11:09:13;39.50;23.60
37560;DHT22;23398;50.928;7.084;2022-07-05T11:19:59;37.40;25.20
37560;DHT22;23398;50.928;7.084;2022-07-05T11:22:25;36.80;25.60
37560;DHT22;23398;50.928;7.084;2022-07-05T11:24:51;36.40;26.40
37560;DHT22;23398;50.928;7.084;2022-07-05T11:27:17;35.90;26.30
37560;DHT22;23398;50.928;7.084;2022-07-05T11:29:52;35.50;26.70
37560;DHT22;23398;50.928;7.084;2022-07-05T11:32:23;35.10;26.90
37560;DHT22;23398;50.928;7.084;2022-07-05T11:35:19;34.70;26.80
37560;DHT22;23398;50.928;7.084;2022-07-05T11:38:05;34.30;27.30
37560;DHT22;23398;50.928;7.084;2022-07-05T11:40:36;34.10;27.40
37560;DHT22;23398;50.928;7.084;2022-07-05T11:43:03;33.80;28.20
37560;DHT22;23398;50.928;7.084;2022-07-05T11:45:32;33.60;28.20
37560;DHT22;23398;50.928;7.084;2022-07-05T11:47:58;33.40;28.00
37560;DHT22;23398;50.928;7.084;2022-07-05T11:50:28;33.20;28.40
37560;DHT22;23398;50.928;7.084;2022-07-05T11:52:54;33.00;29.00
37560;DHT22;23398;50.928;7.084;2022-07-05T11:55:20;32.70;29.90
37560;DHT22;23398;50.928;7.084;2022-07-05T11:57:50;32.50;29.50
37560;DHT22;23398;50.928;7.084;2022-07-05T12:00:34;32.30;30.00
37560;DHT22;23398;50.928;7.084;2022-07-05T12:03:13;32.10;30.60
37560;DHT22;23398;50.928;7.084;2022-07-05T12:05:39;31.90;30.80
37560;DHT22;23398;50.928;7.084;2022-07-05T12:08:08;31.90;30.40
37560;DHT22;23398;50.928;7.084;2022-07-05T12:10:35;31.70;30.40
37560;DHT22;23398;50.928;7.084;2022-07-05T12:13:19;31.50;30.40
37560;DHT22;23398;50.928;7.084;2022-07-05T12:15:45;31.50;31.00
37560;DHT22;23398;50.928;7.084;2022-07-05T12:18:12;31.40;31.00
37560;DHT22;23398;50.928;7.084;2022-07-05T12:20:39;31.30;30.80
37560;DHT22;23398;50.928;7.084;2022-07-05T12:23:05;31.30;31.20
37560;DHT22;23398;50.928;7.084;2022-07-05T12:25:32;31.20;30.50
37560;DHT22;23398;50.928;7.084;2022-07-05T12:27:59;31.10;31.40
37560;DHT22;23398;50.928;7.084;2022-07-05T12:30:28;31.00;31.80
37560;DHT22;23398;50.928;7.084;2022-07-05T12:35:45;30.90;31.60
37560;DHT22;23398;50.928;7.084;2022-07-05T12:38:19;30.80;31.60
37560;DHT22;23398;50.928;7.084;2022-07-05T12:40:47;30.80;32.60
37560;DHT22;23398;50.928;7.084;2022-07-05T12:43:15;30.80;33.00
37560;DHT22;23398;50.928;7.084;2022-07-05T12:45:43;30.80;33.30
37560;DHT22;23398;50.928;7.084;2022-07-05T12:48:10;30.60;33.00
37560;DHT22;23398;50.928;7.084;2022-07-05T12:50:50;30.60;33.60
37560;DHT22;23398;50.928;7.084;2022-07-05T12:53:16;30.70;33.10
37560;DHT22;23398;50.928;7.084;2022-07-05T12:56:05;30.70;32.00
37560;DHT22;23398;50.928;7.084;2022-07-05T12:58:52;30.70;31.70
37560;DHT22;23398;50.928;7.084;2022-07-05T13:01:30;30.70;32.20
37560;DHT22;23398;50.928;7.084;2022-07-05T13:09:15;30.50;32.40
37560;DHT22;23398;50.928;7.084;2022-07-05T13:11:42;30.50;32.50
37560;DHT22;23398;50.928;7.084;2022-07-05T13:14:08;30.40;31.90
37560;DHT22;23398;50.928;7.084;2022-07-05T13:16:34;30.40;31.90
37560;DHT22;23398;50.928;7.084;2022-07-05T13:19:11;30.40;31.80
37560;DHT22;23398;50.928;7.084;2022-07-05T13:21:38;30.40;31.50
37560;DHT22;23398;50.928;7.084;2022-07-05T13:24:04;30.40;32.30
37560;DHT22;23398;50.928;7.084;2022-07-05T13:26:30;30.30;32.80
37560;DHT22;23398;50.928;7.084;2022-07-05T13:28:55;30.30;32.40
37560;DHT22;23398;50.928;7.084;2022-07-05T13:31:21;30.20;32.20
37560;DHT22;23398;50.928;7.084;2022-07-05T13:33:46;30.20;32.10
37560;DHT22;23398;50.928;7.084;2022-07-05T13:36:12;30.00;32.30
37560;DHT22;23398;50.928;7.084;2022-07-05T13:38:38;30.00;33.10
37560;DHT22;23398;50.928;7.084;2022-07-05T13:41:03;29.90;33.00
37560;DHT22;23398;50.928;7.084;2022-07-05T13:43:29;29.80;32.90
37560;DHT22;23398;50.928;7.084;2022-07-05T13:45:54;29.80;33.20
37560;DHT22;23398;50.928;7.084;2022-07-05T13:48:20;29.80;32.80
37560;DHT22;23398;50.928;7.084;2022-07-05T13:50:45;29.70;32.60
37560;DHT22;23398;50.928;7.084;2022-07-05T13:53:11;29.70;33.60
37560;DHT22;23398;50.928;7.084;2022-07-05T13:55:37;29.70;33.60
37560;DHT22;23398;50.928;7.084;2022-07-05T13:58:02;29.70;33.60
37560;DHT22;23398;50.928;7.084;2022-07-05T14:00:28;29.60;33.80
37560;DHT22;23398;50.928;7.084;2022-07-05T14:02:54;29.60;33.80
37560;DHT22;23398;50.928;7.084;2022-07-05T14:05:19;29.60;34.00
37560;DHT22;23398;50.928;7.084;2022-07-05T14:07:48;29.50;33.90
37560;DHT22;23398;50.928;7.084;2022-07-05T14:10:14;29.60;35.00
37560;DHT22;23398;50.928;7.084;2022-07-05T14:12:40;29.50;33.90
37560;DHT22;23398;50.928;7.084;2022-07-05T14:15:07;29.50;33.80
37560;DHT22;23398;50.928;7.084;2022-07-05T14:17:32;29.50;33.30
37560;DHT22;23398;50.928;7.084;2022-07-05T14:19:58;29.40;34.10
37560;DHT22;23398;50.928;7.084;2022-07-05T14:22:24;29.60;34.20
37560;DHT22;23398;50.928;7.084;2022-07-05T14:24:49;29.40;34.00
37560;DHT22;23398;50.928;7.084;2022-07-05T14:27:15;29.40;34.90
37560;DHT22;23398;50.928;7.084;2022-07-05T14:29:40;29.50;34.90
37560;DHT22;23398;50.928;7.084;2022-07-05T14:32:06;29.50;34.50
37560;DHT22;23398;50.928;7.084;2022-07-05T14:34:32;29.50;34.60
37560;DHT22;23398;50.928;7.084;2022-07-05T14:36:57;29.40;34.50
37560;DHT22;23398;50.928;7.084;2022-07-05T14:39:25;29.40;34.20
37560;DHT22;23398;50.928;7.084;2022-07-05T14:41:50;29.30;34.60
37560;DHT22;23398;50.928;7.084;2022-07-05T14:44:16;29.30;35.20
37560;DHT22;23398;50.928;7.084;2022-07-05T14:46:41;29.20;35.30
37560;DHT22;23398;50.928;7.084;2022-07-05T14:49:07;29.20;34.80
37560;DHT22;23398;50.928;7.084;2022-07-05T14:51:32;29.20;34.90
37560;DHT22;23398;50.928;7.084;2022-07-05T14:53:58;29.10;34.90
37560;DHT22;23398;50.928;7.084;2022-07-05T14:56:24;29.10;34.80
37560;DHT22;23398;50.928;7.084;2022-07-05T14:58:49;29.00;34.60
37560;DHT22;23398;50.928;7.084;2022-07-05T15:01:15;29.00;34.80
37560;DHT22;23398;50.928;7.084;2022-07-05T15:03:43;29.00;35.20
37560;DHT22;23398;50.928;7.084;2022-07-05T15:06:08;28.90;35.80
37560;DHT22;23398;50.928;7.084;2022-07-05T15:08:34;28.80;36.10
37560;DHT22;23398;50.928;7.084;2022-07-05T15:11:00;28.80;35.80
37560;DHT22;23398;50.928;7.084;2022-07-05T15:13:26;28.80;35.70
37560;DHT22;23398;50.928;7.084;2022-07-05T15:15:52;28.80;36.10
37560;DHT22;23398;50.928;7.084;2022-07-05T15:18:18;28.80;36.10
37560;DHT22;23398;50.928;7.084;2022-07-05T15:20:44;28.80;35.70
37560;DHT22;23398;50.928;7.084;2022-07-05T15:23:10;28.80;35.50
37560;DHT22;23398;50.928;7.084;2022-07-05T15:25:35;28.80;35.90
37560;DHT22;23398;50.928;7.084;2022-07-05T15:28:02;28.80;35.70
37560;DHT22;23398;50.928;7.084;2022-07-05T15:30:28;28.80;35.80
37560;DHT22;23398;50.928;7.084;2022-07-05T15:32:53;28.90;36.20
37560;DHT22;23398;50.928;7.084;2022-07-05T15:35:19;29.00;35.60
37560;DHT22;23398;50.928;7.084;2022-07-05T15:37:44;29.00;35.20
37560;DHT22;23398;50.928;7.084;2022-07-05T15:40:11;29.00;34.60
37560;DHT22;23398;50.928;7.084;2022-07-05T15:42:36;29.00;34.90
37560;DHT22;23398;50.928;7.084;2022-07-05T15:45:03;29.00;34.80
37560;DHT22;23398;50.928;7.084;2022-07-05T15:47:28;29.00;34.80
37560;DHT22;23398;50.928;7.084;2022-07-05T15:49:54;29.00;34.80
37560;DHT22;23398;50.928;7.084;2022-07-05T15:52:20;28.90;34.60
37560;DHT22;23398;50.928;7.084;2022-07-05T15:54:47;28.90;34.90
37560;DHT22;23398;50.928;7.084;2022-07-05T15:57:13;28.90;35.00
37560;DHT22;23398;50.928;7.084;2022-07-05T15:59:38;28.80;34.80
37560;DHT22;23398;50.928;7.084;2022-07-05T16:02:04;28.70;35.30
37560;DHT22;23398;50.928;7.084;2022-07-05T16:04:30;28.70;35.60
37560;DHT22;23398;50.928;7.084;2022-07-05T16:06:57;28.80;35.70
37560;DHT22;23398;50.928;7.084;2022-07-05T16:09:24;28.70;35.90
37560;DHT22;23398;50.928;7.084;2022-07-05T16:11:49;28.70;36.50
37560;DHT22;23398;50.928;7.084;2022-07-05T16:14:15;28.80;35.80